Time;durP1;ratioP1;P1;durP2;ratioP2;P2;SDS_P1;SDS_P2;PMS_P1;PMS_P2;Temp;Humidity;BMP_temperature;BMP_pressure;BME280_temperature;BME280_humidity;BME280_pressure;Samples;Min_cycle;Max_cycle;Signal;HPM_P1;HPM_P2
2022/05/18 00:00:27;;;;;;;0.65;0.60;;;21.30;78.80;;;;;;5078253;28;45464;-75
2022/05/18 00:02:55;;;;;;;1.00;0.73;;;21.30;78.90;;;;;;5081191;27;48089;-75
2022/05/18 00:05:22;;;;;;;2.33;0.90;;;21.30;78.80;;;;;;5071615;27;45877;-75
2022/05/18 00:07:50;;;;;;;1.00;0.60;;;21.30;78.90;;;;;;5079728;27;45609;-75
2022/05/18 00:10:17;;;;;;;0.68;0.68;;;21.30;78.80;;;;;;5081806;28;45230;-75
2022/05/18 00:12:45;;;;;;;1.15;0.63;;;21.30;78.90;;;;;;5088106;27;48080;-75
2022/05/18 00:15:14;;;;;;;0.88;0.65;;;21.30;78.90;;;;;;5081084;28;45176;-75
2022/05/18 00:17:41;;;;;;;2.35;0.57;;;21.30;78.90;;;;;;5076806;27;45387;-75
2022/05/18 00:20:09;;;;;;;0.85;0.70;;;21.30;78.90;;;;;;5073429;28;45322;-75
2022/05/18 00:22:44;;;;;;;0.65;0.60;;;21.30;78.90;;;;;;5076135;27;47748;-75
2022/05/18 00:25:12;;;;;;;0.88;0.60;;;21.30;78.90;;;;;;5075015;28;45473;-75
2022/05/18 00:27:39;;;;;;;0.57;0.50;;;21.30;78.90;;;;;;5077269;28;45276;-75
2022/05/18 00:30:07;;;;;;;0.95;0.65;;;21.20;78.70;;;;;;5080573;28;45354;-75
2022/05/18 00:32:34;;;;;;;0.75;0.30;;;21.30;78.90;;;;;;5084327;27;47227;-74
2022/05/18 00:35:00;;;;;;;0.50;0.50;;;21.20;78.70;;;;;;5079391;28;45148;-75
2022/05/18 00:37:27;;;;;;;1.30;0.70;;;21.30;78.90;;;;;;5076153;28;45231;-75
2022/05/18 00:39:54;;;;;;;0.98;0.80;;;21.20;78.70;;;;;;5082983;27;45230;-75
2022/05/18 00:42:25;;;;;;;0.68;0.60;;;21.30;78.80;;;;;;5076884;28;45296;-75
2022/05/18 00:44:52;;;;;;;1.35;0.70;;;21.30;78.80;;;;;;5077888;28;45311;-75
2022/05/18 00:47:20;;;;;;;0.68;0.52;;;21.30;78.70;;;;;;5076144;28;45524;-74
2022/05/18 00:49:51;;;;;;;1.48;0.85;;;21.30;78.70;;;;;;5085272;28;45402;-75
2022/05/18 00:52:23;;;;;;;0.60;0.47;;;21.30;78.80;;;;;;5077410;27;47351;-75
2022/05/18 00:54:52;;;;;;;0.70;0.60;;;21.20;79.70;;;;;;5073947;28;45109;-75
2022/05/18 00:57:25;;;;;;;1.00;0.77;;;21.20;78.70;;;;;;5079083;28;45380;-75
2022/05/18 00:59:56;;;;;;;0.70;0.60;;;21.20;78.80;;;;;;5070162;27;45207;-75
2022/05/18 01:02:24;;;;;;;1.50;0.70;;;21.20;78.80;;;;;;5078232;28;45326;-75
2022/05/18 01:04:54;;;;;;;0.68;0.60;;;21.20;78.90;;;;;;5079100;28;45241;-75
2022/05/18 01:07:25;;;;;;;0.85;0.60;;;21.20;78.90;;;;;;5075245;27;45452;-75
2022/05/18 01:09:52;;;;;;;0.60;0.57;;;21.20;78.90;;;;;;5083402;28;45242;-75
2022/05/18 01:12:21;;;;;;;0.75;0.52;;;21.20;78.90;;;;;;5069026;27;45588;-75
2022/05/18 01:14:52;;;;;;;0.70;0.70;;;21.20;78.90;;;;;;5075615;28;45252;-75
2022/05/18 01:17:21;;;;;;;0.93;0.80;;;21.20;78.90;;;;;;5077814;28;45229;-75
2022/05/18 01:19:50;;;;;;;1.30;0.70;;;21.20;78.80;;;;;;5082017;27;45651;-75
2022/05/18 01:22:27;;;;;;;0.73;0.60;;;21.20;78.90;;;;;;5076313;28;47638;-75
2022/05/18 01:25:02;;;;;;;1.23;0.80;;;21.20;78.90;;;;;;5075135;28;45366;-75
2022/05/18 01:27:31;;;;;;;0.90;0.80;;;21.20;78.90;;;;;;5073475;27;45418;-75
2022/05/18 01:29:58;;;;;;;0.90;0.80;;;21.20;78.90;;;;;;5072274;28;45291;-75
2022/05/18 01:32:25;;;;;;;0.90;0.85;;;21.20;78.90;;;;;;5074749;28;46692;-75
2022/05/18 01:34:52;;;;;;;0.95;0.80;;;21.20;78.90;;;;;;5075478;27;45113;-75
2022/05/18 01:37:19;;;;;;;1.38;0.70;;;21.20;78.80;;;;;;5082491;28;45459;-75
2022/05/18 01:39:50;;;;;;;1.65;0.75;;;21.20;78.90;;;;;;5075805;28;45409;-75
2022/05/18 01:42:26;;;;;;;0.93;0.63;;;21.20;78.90;;;;;;5074793;28;47154;-75
2022/05/18 01:44:54;;;;;;;1.75;0.88;;;21.20;78.90;;;;;;5080189;28;45281;-75
2022/05/18 01:47:24;;;;;;;0.80;0.70;;;21.20;78.90;;;;;;5078308;28;45216;-75
2022/05/18 01:49:53;;;;;;;0.77;0.68;;;21.20;78.80;;;;;;5073106;27;45166;-75
2022/05/18 01:52:20;;;;;;;0.80;0.75;;;21.20;78.90;;;;;;5081036;27;47902;-75
2022/05/18 01:54:48;;;;;;;0.90;0.70;;;21.20;78.70;;;;;;5081950;28;45458;-75
2022/05/18 01:57:15;;;;;;;1.10;0.80;;;21.20;78.70;;;;;;5079332;28;45223;-75
2022/05/18 01:59:43;;;;;;;1.00;1.00;;;21.20;78.70;;;;;;5076825;28;45426;-75
2022/05/18 02:02:12;;;;;;;1.58;0.85;;;21.20;78.70;;;;;;5080658;27;46158;-75
2022/05/18 02:04:39;;;;;;;1.60;0.80;;;21.20;78.70;;;;;;5077412;28;45230;-75
2022/05/18 02:07:07;;;;;;;0.82;0.70;;;21.20;78.60;;;;;;5080001;27;45274;-75
2022/05/18 02:09:34;;;;;;;1.13;0.75;;;21.20;78.60;;;;;;5076187;28;45141;-75
2022/05/18 02:12:01;;;;;;;1.05;0.63;;;21.20;78.60;;;;;;5079688;27;46458;-75
2022/05/18 02:14:28;;;;;;;0.85;0.70;;;21.30;78.80;;;;;;5079605;28;45433;-75
2022/05/18 02:16:55;;;;;;;0.70;0.70;;;21.20;78.60;;;;;;5079620;28;45183;-75
2022/05/18 02:19:23;;;;;;;1.77;0.90;;;21.20;78.60;;;;;;5074937;28;45342;-75
2022/05/18 02:21:50;;;;;;;0.98;0.63;;;21.20;78.70;;;;;;5072639;27;46579;-75
2022/05/18 02:24:17;;;;;;;1.52;0.80;;;21.20;78.70;;;;;;5076254;27;45598;-75
2022/05/18 02:26:45;;;;;;;0.93;0.70;;;21.20;78.50;;;;;;5077973;28;45283;-75
2022/05/18 02:29:12;;;;;;;2.15;0.63;;;21.20;78.50;;;;;;5075010;28;45094;-75
2022/05/18 02:31:39;;;;;;;1.23;0.65;;;21.20;78.50;;;;;;5079337;28;48191;-75
2022/05/18 02:34:06;;;;;;;1.50;0.90;;;21.20;78.50;;;;;;5076121;28;45240;-75
2022/05/18 02:36:35;;;;;;;1.52;0.65;;;21.20;78.50;;;;;;5076405;28;45259;-75
2022/05/18 02:39:02;;;;;;;1.25;0.70;;;21.20;78.50;;;;;;5076422;27;45335;-75
2022/05/18 02:41:28;;;;;;;1.10;0.93;;;21.20;78.50;;;;;;5082592;27;46564;-75
2022/05/18 02:43:55;;;;;;;0.93;0.70;;;21.20;78.40;;;;;;5081234;28;45286;-76
2022/05/18 02:46:23;;;;;;;1.25;0.70;;;21.20;78.40;;;;;;5082675;28;45398;-75
2022/05/18 02:48:52;;;;;;;1.58;0.90;;;21.20;78.30;;;;;;5074944;27;45286;-75
2022/05/18 02:51:21;;;;;;;1.52;0.93;;;21.20;78.30;;;;;;5079626;27;47567;-75
2022/05/18 02:53:49;;;;;;;0.90;0.80;;;21.20;78.20;;;;;;5084621;27;45273;-75
2022/05/18 02:56:23;;;;;;;1.35;0.88;;;21.20;78.20;;;;;;5084110;28;45205;-75
2022/05/18 02:58:52;;;;;;;0.70;0.70;;;21.30;78.40;;;;;;5084217;27;45588;-75
2022/05/18 03:01:21;;;;;;;1.25;0.77;;;21.20;78.20;;;;;;5082826;28;46149;-75
2022/05/18 03:03:48;;;;;;;1.30;0.88;;;21.20;78.20;;;;;;5077526;28;45395;-74
2022/05/18 03:06:18;;;;;;;1.00;0.90;;;21.20;78.20;;;;;;5087657;27;45599;-75
2022/05/18 03:08:46;;;;;;;1.55;0.98;;;21.20;78.30;;;;;;5081309;28;45517;-75
2022/05/18 03:11:15;;;;;;;1.42;1.00;;;21.20;78.20;;;;;;5072866;28;46198;-75
2022/05/18 03:13:42;;;;;;;1.50;0.90;;;21.20;78.20;;;;;;5087333;28;45251;-75
2022/05/18 03:16:10;;;;;;;0.70;0.70;;;21.20;78.20;;;;;;5086148;28;46391;-75
2022/05/18 03:18:36;;;;;;;1.33;0.80;;;21.20;78.20;;;;;;5081589;27;45271;-74
2022/05/18 03:23:45;;;;;;;1.10;0.70;;;21.20;78.20;;;;;;5038476;27;45240;-75
2022/05/18 03:26:16;;;;;;;1.25;0.80;;;21.20;78.20;;;;;;5084898;28;45326;-75
2022/05/18 03:28:45;;;;;;;1.13;1.00;;;21.20;78.20;;;;;;5083044;28;45089;-75
2022/05/18 03:31:12;;;;;;;1.20;0.90;;;21.20;78.10;;;;;;5086354;27;47863;-75
2022/05/18 03:33:39;;;;;;;1.15;0.93;;;21.20;78.20;;;;;;5084303;28;45285;-75
2022/05/18 03:36:09;;;;;;;1.35;0.77;;;21.20;78.00;;;;;;5080391;28;45309;-75
2022/05/18 03:38:36;;;;;;;1.45;0.90;;;21.20;78.00;;;;;;5080575;28;45778;-75
2022/05/18 03:41:03;;;;;;;1.38;0.93;;;21.20;78.10;;;;;;5078993;28;47929;-75
2022/05/18 03:43:32;;;;;;;1.60;0.95;;;21.20;78.00;;;;;;5078396;28;45472;-75
2022/05/18 03:46:00;;;;;;;1.00;0.85;;;21.20;78.00;;;;;;5087016;27;45169;-75
2022/05/18 03:48:27;;;;;;;1.67;0.82;;;21.20;78.00;;;;;;5085860;28;45333;-75
2022/05/18 03:50:57;;;;;;;2.38;1.02;;;21.20;78.00;;;;;;5083968;28;47086;-75
2022/05/18 03:53:24;;;;;;;1.05;0.80;;;21.20;78.00;;;;;;5087630;28;45383;-74
2022/05/18 03:55:51;;;;;;;1.25;1.15;;;21.20;77.90;;;;;;5078513;28;45363;-75
2022/05/18 03:58:18;;;;;;;1.15;0.70;;;21.20;78.00;;;;;;5085395;27;45381;-75
2022/05/18 04:00:48;;;;;;;1.30;1.00;;;21.30;78.00;;;;;;5082464;28;47548;-75
2022/05/18 04:03:16;;;;;;;1.15;0.80;;;21.60;78.30;;;;;;5080916;28;45233;-74
2022/05/18 04:05:43;;;;;;;1.27;0.93;;;21.20;78.00;;;;;;5081441;27;45228;-75
2022/05/18 04:08:13;;;;;;;1.23;0.80;;;21.20;78.00;;;;;;5082831;28;45588;-75
2022/05/18 04:10:41;;;;;;;1.38;1.00;;;21.20;78.10;;;;;;5079617;28;46144;-75
2022/05/18 04:13:11;;;;;;;1.63;1.10;;;21.20;78.00;;;;;;5082098;28;45271;-75
2022/05/18 04:18:09;;;;;;;1.02;0.90;;;21.20;78.60;;;;;;5088259;27;46970;-87
2022/05/18 04:20:36;;;;;;;1.65;1.00;;;21.20;79.10;;;;;;5092494;27;45533;-87
2022/05/18 04:23:03;;;;;;;1.63;1.00;;;21.20;78.00;;;;;;5088173;27;45557;-87
2022/05/18 04:25:30;;;;;;;0.80;0.80;;;21.20;78.10;;;;;;5088209;27;45400;-87
2022/05/18 04:27:57;;;;;;;0.88;0.80;;;21.20;78.10;;;;;;5090377;27;45444;-86
2022/05/18 04:30:28;;;;;;;1.45;1.05;;;21.20;78.10;;;;;;5076329;27;46221;-86
2022/05/18 04:32:56;;;;;;;1.25;0.90;;;21.20;78.40;;;;;;5083448;27;45369;-86
2022/05/18 04:35:25;;;;;;;1.50;1.10;;;21.20;78.60;;;;;;5082387;27;46870;-85
2022/05/18 04:37:52;;;;;;;1.33;1.02;;;21.20;78.90;;;;;;5091851;27;46203;-87
2022/05/18 04:40:20;;;;;;;0.95;0.95;;;21.20;79.20;;;;;;5083781;27;47081;-86
2022/05/18 04:42:47;;;;;;;1.33;0.90;;;21.30;78.90;;;;;;5087780;27;45379;-87
2022/05/18 04:45:17;;;;;;;1.10;0.90;;;21.30;78.60;;;;;;5088386;27;45410;-89
2022/05/18 04:47:44;;;;;;;1.27;0.90;;;21.30;78.30;;;;;;5085522;27;45485;-89
2022/05/18 04:50:11;;;;;;;2.10;1.00;;;21.30;78.10;;;;;;5083363;27;46969;-90
2022/05/18 04:52:40;;;;;;;0.70;0.70;;;21.30;77.90;;;;;;5079872;27;45240;-89
2022/05/18 04:55:08;;;;;;;1.30;0.90;;;21.60;78.00;;;;;;5082632;27;45260;-88
2022/05/18 04:57:35;;;;;;;2.05;1.10;;;21.20;77.50;;;;;;5091607;27;45285;-91
2022/05/18 05:00:02;;;;;;;2.25;1.27;;;21.20;77.70;;;;;;5085069;28;46603;-89
2022/05/18 05:02:29;;;;;;;1.13;0.95;;;21.20;77.90;;;;;;5071448;28;45155;-90
2022/05/18 05:04:56;;;;;;;1.73;1.10;;;21.20;77.80;;;;;;5073851;27;45325;-91
2022/05/18 05:07:23;;;;;;;1.02;0.93;;;21.20;78.00;;;;;;5073642;27;45244;-92
2022/05/18 05:09:52;;;;;;;1.58;0.80;;;21.20;78.20;;;;;;5087535;28;46299;-91
2022/05/18 05:12:20;;;;;;;1.73;0.88;;;21.20;78.30;;;;;;5087963;27;45176;-89
2022/05/18 05:14:47;;;;;;;1.10;0.90;;;21.20;78.30;;;;;;5070095;28;45200;-90
2022/05/18 05:17:14;;;;;;;1.73;0.98;;;21.20;78.40;;;;;;5084905;28;46325;-89
2022/05/18 05:19:41;;;;;;;1.05;0.93;;;21.20;78.40;;;;;;5083109;27;48685;-89
2022/05/18 05:22:07;;;;;;;1.25;0.90;;;21.20;78.50;;;;;;5084396;27;45246;-91
2022/05/18 05:24:35;;;;;;;1.10;1.00;;;21.20;78.50;;;;;;5084131;27;45336;-88
2022/05/18 05:27:03;;;;;;;1.17;0.93;;;21.20;78.70;;;;;;5090229;27;45580;-87
2022/05/18 05:29:30;;;;;;;1.00;0.90;;;21.20;78.90;;;;;;5096598;27;47432;-89
2022/05/18 05:31:57;;;;;;;1.52;0.80;;;21.20;79.20;;;;;;5080833;27;45175;-89
2022/05/18 05:34:24;;;;;;;1.88;1.20;;;21.20;79.30;;;;;;5095406;27;45311;-89
2022/05/18 05:36:50;;;;;;;1.15;0.90;;;21.20;79.30;;;;;;5094184;27;45524;-88
2022/05/18 05:39:20;;;;;;;1.17;1.02;;;21.20;79.30;;;;;;5084819;27;45728;-89
2022/05/18 05:41:47;;;;;;;1.10;0.80;;;21.20;79.30;;;;;;5082636;28;45224;-89
2022/05/18 05:44:15;;;;;;;1.67;1.02;;;21.20;79.30;;;;;;5074880;27;45301;-90
2022/05/18 05:46:42;;;;;;;1.20;1.10;;;21.30;79.40;;;;;;5081639;27;45460;-90
2022/05/18 05:49:11;;;;;;;1.83;1.20;;;21.30;80.50;;;;;;5092668;27;45580;-89
2022/05/18 05:51:38;;;;;;;1.45;0.90;;;21.30;79.40;;;;;;5084848;27;45456;-90
2022/05/18 05:54:05;;;;;;;1.50;1.08;;;21.30;79.40;;;;;;5099181;27;45215;-89
2022/05/18 05:56:32;;;;;;;1.40;1.00;;;21.30;79.40;;;;;;5094547;27;45077;-88
2022/05/18 05:58:59;;;;;;;1.73;1.00;;;21.30;79.40;;;;;;5096695;27;45141;-89
2022/05/18 06:01:27;;;;;;;1.38;1.10;;;21.30;79.80;;;;;;5098200;27;45341;-90
2022/05/18 06:03:54;;;;;;;1.40;1.20;;;21.30;79.80;;;;;;5093778;27;45446;-89
2022/05/18 06:06:21;;;;;;;0.90;0.90;;;21.30;79.80;;;;;;5084802;27;45264;-89
2022/05/18 06:08:50;;;;;;;1.40;1.10;;;21.30;79.80;;;;;;5096319;27;45448;-89
2022/05/18 06:11:17;;;;;;;1.40;0.93;;;21.30;80.00;;;;;;5097602;27;45155;-90
2022/05/18 06:16:37;;;;;;;1.70;1.10;;;21.30;80.40;;;;;;5056405;28;46026;-89
2022/05/18 06:19:04;;;;;;;1.10;1.00;;;21.30;80.30;;;;;;5055096;28;46969;-88
2022/05/18 06:21:31;;;;;;;1.58;1.10;;;21.30;80.30;;;;;;5055414;28;45300;-87
2022/05/18 06:23:58;;;;;;;1.38;1.20;;;21.30;80.30;;;;;;5056322;28;45280;-89
2022/05/18 06:26:26;;;;;;;1.20;1.10;;;21.30;80.30;;;;;;5057124;28;44826;-88
2022/05/18 06:28:53;;;;;;;1.20;1.10;;;21.30;80.40;;;;;;5061993;28;45380;-88
2022/05/18 06:31:20;;;;;;;1.80;1.02;;;21.30;80.70;;;;;;5058414;28;45160;-88
2022/05/18 06:33:48;;;;;;;1.55;0.90;;;21.30;80.50;;;;;;5062691;28;45233;-89
2022/05/18 06:36:15;;;;;;;1.23;1.05;;;21.30;80.50;;;;;;5053164;28;45079;-88
2022/05/18 06:38:42;;;;;;;1.20;1.10;;;21.30;80.40;;;;;;5056528;28;46997;-88
2022/05/18 06:41:23;;;;;;;1.35;0.90;;;21.30;80.60;;;;;;5057317;28;45326;-87
2022/05/18 06:43:51;;;;;;;1.70;1.17;;;21.30;80.60;;;;;;5045682;28;45137;-85
2022/05/18 06:46:19;;;;;;;2.80;1.20;;;21.30;81.00;;;;;;5054219;28;45259;-85
2022/05/18 06:48:46;;;;;;;1.40;1.23;;;21.40;80.70;;;;;;5062234;28;46497;-85
2022/05/18 06:51:17;;;;;;;1.73;1.08;;;21.40;80.40;;;;;;5057694;28;45361;-86
2022/05/18 06:53:44;;;;;;;1.08;0.90;;;21.40;80.60;;;;;;5061044;28;45263;-85
2022/05/18 06:56:11;;;;;;;1.85;1.38;;;21.40;80.80;;;;;;5054632;28;45233;-84
2022/05/18 06:58:38;;;;;;;1.38;1.10;;;21.40;81.10;;;;;;5048933;28;47358;-85
2022/05/18 07:01:07;;;;;;;1.58;1.05;;;21.40;81.40;;;;;;5058781;28;46360;-84
2022/05/18 07:03:34;;;;;;;2.33;1.23;;;21.40;82.00;;;;;;5054022;28;45310;-84
2022/05/18 07:06:01;;;;;;;1.38;1.15;;;21.40;82.20;;;;;;5044600;28;45652;-88
2022/05/18 07:08:29;;;;;;;3.42;1.42;;;21.40;82.20;;;;;;5049493;28;46597;-87
2022/05/18 07:10:56;;;;;;;1.85;1.10;;;21.40;82.20;;;;;;5062606;28;45223;-87
2022/05/18 07:13:23;;;;;;;1.40;1.17;;;21.40;82.10;;;;;;5055120;28;45498;-87
2022/05/18 07:15:50;;;;;;;1.60;1.05;;;21.40;82.00;;;;;;5058576;28;45300;-86
2022/05/18 07:18:17;;;;;;;1.77;1.17;;;21.50;81.80;;;;;;5049263;28;45327;-86
2022/05/18 07:20:44;;;;;;;2.25;0.90;;;21.50;81.40;;;;;;5045458;28;45519;-87
2022/05/18 07:23:11;;;;;;;1.30;1.10;;;21.50;81.30;;;;;;5046332;28;45617;-87
2022/05/18 07:25:39;;;;;;;1.38;1.00;;;21.50;81.20;;;;;;5056327;28;45324;-87
2022/05/18 07:28:07;;;;;;;2.38;1.10;;;21.50;81.00;;;;;;5052468;28;45224;-86
2022/05/18 07:30:34;;;;;;;0.82;0.80;;;21.50;81.20;;;;;;5055983;28;45320;-86
2022/05/18 07:33:00;;;;;;;1.80;1.42;;;21.50;81.00;;;;;;5052218;28;45160;-86
2022/05/18 07:35:28;;;;;;;1.30;1.08;;;21.50;81.00;;;;;;5062951;28;45348;-86
2022/05/18 07:37:57;;;;;;;1.10;1.00;;;21.60;81.10;;;;;;5050806;28;47250;-87
2022/05/18 07:40:24;;;;;;;1.40;0.90;;;21.60;81.40;;;;;;5049326;28;45315;-86
2022/05/18 07:42:56;;;;;;;2.15;1.10;;;21.60;81.20;;;;;;5048229;28;45303;-86
2022/05/18 07:45:23;;;;;;;1.70;1.17;;;21.60;81.10;;;;;;5046442;28;45424;-86
2022/05/18 07:47:52;;;;;;;1.70;1.27;;;21.60;81.20;;;;;;5046587;28;46621;-86
2022/05/18 07:50:19;;;;;;;1.70;1.15;;;21.60;81.00;;;;;;5048355;28;45207;-86
2022/05/18 07:52:46;;;;;;;1.30;1.13;;;21.60;81.10;;;;;;5055412;28;45391;-86
2022/05/18 07:55:13;;;;;;;2.00;1.30;;;21.60;81.40;;;;;;5052895;28;45391;-86
2022/05/18 07:57:40;;;;;;;1.40;1.17;;;21.60;81.30;;;;;;5056202;28;46601;-85
2022/05/18 08:00:10;;;;;;;1.30;0.90;;;21.60;81.20;;;;;;5055012;28;45578;-86
2022/05/18 08:02:37;;;;;;;1.48;0.90;;;21.60;81.20;;;;;;5064870;28;45261;-86
2022/05/18 08:05:04;;;;;;;1.50;1.20;;;21.60;81.40;;;;;;5050552;28;46349;-86
2022/05/18 08:07:31;;;;;;;1.95;1.15;;;21.60;81.40;;;;;;5047297;28;46599;-86
2022/05/18 08:15:25;;;;;;;1.85;1.00;;;21.60;81.40;;;;;;5050174;28;45241;-86
2022/05/18 08:17:52;;;;;;;2.75;1.20;;;21.60;81.50;;;;;;5055713;28;45490;-86
2022/05/18 08:20:22;;;;;;;1.20;0.95;;;21.60;81.50;;;;;;5054721;28;45144;-86
2022/05/18 08:22:49;;;;;;;2.33;1.40;;;21.60;81.60;;;;;;5057406;28;45351;-86
2022/05/18 08:25:16;;;;;;;2.20;1.10;;;21.60;81.40;;;;;;5050122;28;45396;-86
2022/05/18 08:27:45;;;;;;;1.55;1.10;;;21.60;81.50;;;;;;5051474;28;46618;-85
2022/05/18 08:30:14;;;;;;;1.48;1.33;;;21.60;81.50;;;;;;5053483;28;45340;-86
2022/05/18 08:32:43;;;;;;;1.65;1.00;;;21.60;81.70;;;;;;5058095;28;45193;-86
2022/05/18 08:35:13;;;;;;;1.55;1.00;;;21.60;81.70;;;;;;5058777;28;45806;-86
2022/05/18 08:37:42;;;;;;;1.80;1.10;;;21.60;81.50;;;;;;5050861;28;46185;-86
2022/05/18 08:40:16;;;;;;;2.80;1.20;;;21.60;81.40;;;;;;5048700;28;45324;-86
2022/05/18 08:42:42;;;;;;;1.85;1.08;;;21.60;81.50;;;;;;5049223;28;45312;-85
2022/05/18 08:45:10;;;;;;;1.30;1.20;;;21.60;81.40;;;;;;5056755;28;45551;-87
2022/05/18 08:47:43;;;;;;;1.35;1.08;;;21.60;82.40;;;;;;5056393;28;47426;-86
2022/05/18 08:50:13;;;;;;;1.67;1.20;;;21.60;81.20;;;;;;5057720;28;45399;-86
2022/05/18 08:52:59;;;;;;;1.85;1.20;;;21.60;81.50;;;;;;5052858;28;45405;-81
2022/05/18 08:55:42;;;;;;;1.45;1.00;;;21.60;81.50;;;;;;5057793;28;45313;-86
2022/05/18 08:58:15;;;;;;;2.15;1.05;;;21.60;81.40;;;;;;5047902;28;46184;-86
2022/05/18 09:00:45;;;;;;;3.03;1.10;;;21.60;81.60;;;;;;5053680;28;45256;-86
2022/05/18 09:03:17;;;;;;;1.40;1.25;;;21.50;81.70;;;;;;5049143;28;45221;-85
2022/05/18 09:05:54;;;;;;;2.17;1.17;;;21.50;81.90;;;;;;5053362;28;45419;-85
2022/05/18 09:08:24;;;;;;;1.45;1.27;;;21.50;81.80;;;;;;5045873;28;45525;-84
2022/05/18 09:11:02;;;;;;;1.67;1.13;;;21.50;81.90;;;;;;5056849;28;45179;-86
2022/05/18 09:13:30;;;;;;;1.58;1.00;;;21.50;81.70;;;;;;5050102;28;45838;-86
2022/05/18 09:16:08;;;;;;;1.95;1.23;;;21.50;81.70;;;;;;5047661;28;45343;-84
2022/05/18 09:18:43;;;;;;;1.80;1.20;;;21.60;81.70;;;;;;5050700;28;48156;-85
2022/05/18 09:21:21;;;;;;;3.33;1.40;;;21.50;81.90;;;;;;5056481;28;46347;-85
2022/05/18 09:23:58;;;;;;;1.80;1.20;;;21.50;82.10;;;;;;5049715;28;45358;-85
2022/05/18 09:26:42;;;;;;;3.25;1.38;;;21.50;82.00;;;;;;5048068;28;45234;-85
2022/05/18 09:29:16;;;;;;;1.35;1.20;;;21.50;81.80;;;;;;5061585;28;48101;-85
2022/05/18 09:32:05;;;;;;;2.08;1.20;;;21.50;81.70;;;;;;5048233;28;45297;-85
2022/05/18 09:35:15;;;;;;;1.48;1.00;;;21.50;81.80;;;;;;5040840;28;45325;-88
2022/05/18 09:37:48;;;;;;;2.25;1.25;;;21.60;82.10;;;;;;5049524;28;44879;-88
2022/05/18 09:40:19;;;;;;;2.13;1.10;;;21.60;83.00;;;;;;5049422;28;47631;-84
2022/05/18 09:42:51;;;;;;;2.10;1.20;;;21.60;82.80;;;;;;5050616;28;45277;-84
2022/05/18 09:45:22;;;;;;;4.20;1.10;;;21.70;84.40;;;;;;5062276;28;45443;-85
2022/05/18 09:47:53;;;;;;;2.75;1.35;;;21.80;83.70;;;;;;5055923;28;45169;-85
2022/05/18 09:50:22;;;;;;;1.67;1.20;;;22.00;83.40;;;;;;5041637;28;45370;-85
2022/05/18 09:52:50;;;;;;;2.08;1.13;;;22.30;83.30;;;;;;5045530;28;45358;-85
2022/05/18 09:55:21;;;;;;;2.25;1.05;;;22.50;83.40;;;;;;5049681;28;45318;-86
2022/05/18 09:57:52;;;;;;;2.28;1.10;;;22.70;83.10;;;;;;5054097;28;45192;-85
2022/05/18 10:00:23;;;;;;;1.38;1.13;;;22.90;83.10;;;;;;5061164;28;47404;-85
2022/05/18 10:08:35;;;;;;;1.67;1.17;;;23.30;83.60;;;;;;5052180;28;45543;-85
2022/05/18 10:11:05;;;;;;;1.27;1.08;;;23.50;84.10;;;;;;5053713;28;46744;-85
2022/05/18 10:13:34;;;;;;;2.75;1.17;;;23.60;83.40;;;;;;5060607;28;46563;-85
2022/05/18 10:16:05;;;;;;;2.85;1.45;;;23.70;83.30;;;;;;5054131;28;45343;-86
2022/05/18 10:18:41;;;;;;;1.15;1.00;;;23.70;83.90;;;;;;5051633;28;45368;-84
2022/05/18 10:21:24;;;;;;;2.63;1.02;;;23.80;83.90;;;;;;5060855;28;45310;-84
2022/05/18 10:23:57;;;;;;;1.60;0.90;;;23.90;84.00;;;;;;5056601;28;45231;-84
2022/05/18 10:26:28;;;;;;;2.20;1.20;;;23.90;83.40;;;;;;5052082;28;45318;-84
2022/05/18 10:28:59;;;;;;;1.02;0.80;;;23.90;83.90;;;;;;5061093;28;45261;-85
2022/05/18 10:31:31;;;;;;;0.80;0.73;;;23.90;83.40;;;;;;5051571;28;46534;-84
2022/05/18 10:34:24;;;;;;;2.20;1.20;;;24.10;83.80;;;;;;5050928;28;45177;-84
2022/05/18 10:36:55;;;;;;;2.67;1.20;;;24.10;83.10;;;;;;5051776;28;45320;-85
2022/05/18 10:39:40;;;;;;;1.73;1.20;;;24.20;83.80;;;;;;5048899;28;45220;-85
2022/05/18 10:42:14;;;;;;;3.08;1.40;;;24.10;83.30;;;;;;5056188;28;47078;-85
2022/05/18 10:44:43;;;;;;;2.40;1.00;;;24.20;83.80;;;;;;5056996;28;45303;-86
2022/05/18 10:47:29;;;;;;;3.53;1.20;;;24.30;82.80;;;;;;5045876;28;45476;-85
2022/05/18 10:50:24;;;;;;;2.15;1.27;;;24.20;83.90;;;;;;5042540;28;45817;-85
2022/05/18 10:52:54;;;;;;;2.45;1.08;;;24.30;82.60;;;;;;5044993;28;46350;-86
2022/05/18 10:55:24;;;;;;;3.22;1.45;;;24.30;81.80;;;;;;5036549;28;45629;-85
2022/05/18 10:57:57;;;;;;;5.07;1.48;;;24.20;81.90;;;;;;5035441;28;46594;-83
2022/05/18 11:00:29;;;;;;;3.17;1.38;;;24.10;81.80;;;;;;5042432;28;45675;-88
2022/05/18 11:03:04;;;;;;;2.33;1.10;;;24.00;81.70;;;;;;5046838;28;45365;-96
2022/05/18 11:05:39;;;;;;;3.30;1.40;;;23.90;80.00;;;;;;5050706;28;45156;-96
2022/05/18 11:08:13;;;;;;;4.00;1.48;;;23.90;81.20;;;;;;5051060;28;45695;-96
2022/05/18 11:10:50;;;;;;;3.58;1.52;;;23.80;81.30;;;;;;5046484;28;45359;-96
2022/05/18 11:13:25;;;;;;;3.67;1.30;;;23.60;81.40;;;;;;5059799;28;45318;-96
2022/05/18 11:16:05;;;;;;;2.53;1.30;;;23.30;81.10;;;;;;5054727;28;45291;-95
2022/05/18 11:18:38;;;;;;;3.33;1.35;;;23.10;81.60;;;;;;5047766;28;45227;-95
2022/05/18 11:21:14;;;;;;;2.22;1.20;;;22.90;82.60;;;;;;5051457;28;45661;-96
2022/05/18 11:23:52;;;;;;;2.42;1.10;;;22.80;82.60;;;;;;5056210;28;45963;-96
2022/05/18 11:26:28;;;;;;;1.17;0.77;;;22.70;82.90;;;;;;5053895;28;45186;-95
2022/05/18 11:29:05;;;;;;;2.08;1.15;;;22.60;82.90;;;;;;5063850;28;44759;-95
2022/05/18 11:32:14;;;;;;;2.85;1.20;;;22.60;82.90;;;;;;5060619;28;45170;-96
2022/05/18 11:34:52;;;;;;;2.75;1.25;;;22.50;83.20;;;;;;5022527;28;47635;-95
2022/05/18 11:37:35;;;;;;;1.60;1.20;;;22.50;83.30;;;;;;5054405;28;45410;-95
2022/05/18 11:40:14;;;;;;;2.30;1.17;;;22.50;83.30;;;;;;5055901;28;45312;-95
2022/05/18 11:42:55;;;;;;;2.45;1.08;;;22.50;83.50;;;;;;5050444;28;45233;-96
2022/05/18 11:45:33;;;;;;;2.08;1.00;;;22.40;83.20;;;;;;5047674;28;46128;-95
2022/05/18 11:48:15;;;;;;;1.90;1.17;;;22.30;83.50;;;;;;5044809;28;45413;-95
2022/05/18 11:50:56;;;;;;;1.05;0.80;;;22.30;83.40;;;;;;5063814;28;45248;-95
2022/05/18 11:53:38;;;;;;;2.88;0.90;;;22.30;83.80;;;;;;5040672;28;45369;-95
2022/05/18 11:56:23;;;;;;;1.85;0.98;;;22.30;83.80;;;;;;5043514;28;46752;-95
2022/05/18 11:59:10;;;;;;;1.25;0.90;;;22.30;83.80;;;;;;5057294;28;45129;-95
2022/05/18 12:01:45;;;;;;;1.27;0.93;;;22.20;83.80;;;;;;5056027;28;45411;-95
2022/05/18 12:04:47;;;;;;;1.58;1.10;;;22.20;83.50;;;;;;5057782;28;45302;-95
2022/05/18 12:07:34;;;;;;;1.75;0.90;;;22.20;83.70;;;;;;5051447;28;45500;-95
2022/05/18 12:10:24;;;;;;;1.05;0.85;;;22.10;83.70;;;;;;5051567;28;45154;-95
2022/05/18 12:13:01;;;;;;;0.98;0.85;;;22.20;84.00;;;;;;5054153;28;45273;-95
2022/05/18 12:15:38;;;;;;;3.03;0.80;;;22.10;84.00;;;;;;5055678;28;45111;-95
2022/05/18 12:18:10;;;;;;;1.67;1.00;;;22.20;84.20;;;;;;5049611;28;46428;-95
2022/05/18 12:20:44;;;;;;;1.42;0.93;;;22.10;84.00;;;;;;5068107;28;45288;-94
2022/05/18 12:23:15;;;;;;;1.67;1.00;;;22.10;83.80;;;;;;5053355;28;45134;-94
2022/05/18 12:25:43;;;;;;;1.75;0.93;;;22.10;83.80;;;;;;5060110;28;45220;-95
2022/05/18 12:28:15;;;;;;;1.10;0.80;;;22.10;83.50;;;;;;5055717;28;46234;-95
2022/05/18 12:30:44;;;;;;;1.00;0.90;;;22.10;83.60;;;;;;5055864;28;46698;-95
2022/05/18 12:33:13;;;;;;;1.08;0.90;;;22.10;83.30;;;;;;5055237;28;45217;-95
2022/05/18 12:35:51;;;;;;;1.00;0.90;;;22.10;83.50;;;;;;5057341;28;45193;-95
2022/05/18 12:38:24;;;;;;;2.83;0.93;;;22.10;83.60;;;;;;5057527;28;45509;-91
2022/05/18 12:40:54;;;;;;;17.02;2.35;;;22.10;83.50;;;;;;5057784;28;45393;-92
2022/05/18 12:43:28;;;;;;;6.95;1.30;;;22.10;86.80;;;;;;5059636;28;45221;-92
2022/05/18 12:46:00;;;;;;;3.33;1.25;;;22.10;85.20;;;;;;5044762;28;45423;-93
2022/05/18 12:48:36;;;;;;;3.38;1.02;;;22.00;84.30;;;;;;5051420;28;45806;-93
2022/05/18 12:51:13;;;;;;;1.17;0.90;;;21.90;83.10;;;;;;5051362;28;45639;-92
2022/05/18 12:54:01;;;;;;;2.92;0.90;;;22.00;82.60;;;;;;5052983;28;45335;-92
2022/05/18 12:56:51;;;;;;;1.40;1.05;;;22.00;82.40;;;;;;5036792;28;45110;-93
2022/05/18 12:59:22;;;;;;;1.27;0.80;;;22.00;81.50;;;;;;5055852;28;45366;-92
2022/05/18 13:01:53;;;;;;;2.03;0.80;;;22.00;80.90;;;;;;5044500;28;45241;-93
2022/05/18 13:04:40;;;;;;;1.15;1.02;;;22.10;73.60;;;;;;5039465;28;45487;-92
2022/05/18 13:07:26;;;;;;;1.95;0.90;;;22.10;80.10;;;;;;5051453;28;45489;-93
2022/05/18 13:10:04;;;;;;;2.95;1.20;;;22.10;80.20;;;;;;5056089;28;47420;-94
2022/05/18 13:12:40;;;;;;;1.17;0.95;;;21.90;79.90;;;;;;5057109;28;44826;-93
2022/05/18 13:15:50;;;;;;;1.88;1.00;;;22.00;81.10;;;;;;5054093;28;45401;-87
2022/05/18 13:18:19;;;;;;;1.13;0.88;;;21.90;81.40;;;;;;5036676;28;45379;-87
2022/05/18 13:20:51;;;;;;;2.15;1.10;;;22.00;81.70;;;;;;5044697;28;46741;-85
2022/05/18 13:23:40;;;;;;;2.13;1.10;;;21.90;81.70;;;;;;5052221;28;46497;-86
2022/05/18 13:26:18;;;;;;;1.73;0.93;;;21.90;82.20;;;;;;5046889;28;45241;-86